Time;durP1;ratioP1;P1;durP2;ratioP2;P2;SDS_P1;SDS_P2;PMS_P1;PMS_P2;Temp;Humidity;BMP_temperature;BMP_pressure;BME280_temperature;BME280_humidity;BME280_pressure;Samples;Min_cycle;Max_cycle;Signal;HPM_P1;HPM_P2
2023/08/22 00:01:38;;;;;;;8.47;7.67;;;;;;;18.95;100.00;98133.41;6206881;28;20220;-56
2023/08/22 00:04:47;;;;;;;9.33;8.40;;;;;;;18.88;100.00;98131.06;6197610;28;20233;-54
2023/08/22 00:07:53;;;;;;;9.17;8.00;;;;;;;18.89;100.00;98132.66;6197481;28;20213;-57
2023/08/22 00:10:59;;;;;;;9.60;8.47;;;;;;;18.80;100.00;98127.06;6201412;28;20233;-57
2023/08/22 00:14:10;;;;;;;9.17;8.27;;;;;;;18.83;100.00;98128.41;6195369;28;20280;-58
2023/08/22 00:17:13;;;;;;;9.87;8.33;;;;;;;18.79;100.00;98125.47;6197247;28;20232;-56
2023/08/22 00:20:23;;;;;;;8.10;7.40;;;;;;;18.81;100.00;98125.16;6200183;28;20239;-55
2023/08/22 00:23:26;;;;;;;9.27;8.13;;;;;;;18.80;100.00;98120.88;6201459;28;20314;-55
2023/08/22 00:26:31;;;;;;;8.67;7.87;;;;;;;18.75;100.00;98119.00;6199452;28;20420;-55
2023/08/22 00:29:38;;;;;;;9.60;8.60;;;;;;;18.73;100.00;98132.00;6198744;28;20228;-55
2023/08/22 00:32:54;;;;;;;12.43;8.70;;;;;;;18.69;100.00;98130.16;6200204;28;20750;-55
2023/08/22 00:35:58;;;;;;;10.27;8.77;;;;;;;18.58;100.00;98120.50;6203191;28;20285;-56
2023/08/22 00:39:01;;;;;;;10.03;9.07;;;;;;;18.60;100.00;98121.81;6202923;28;20209;-54
2023/08/22 00:42:04;;;;;;;9.20;8.30;;;;;;;18.57;100.00;98127.81;6202735;28;20224;-55
2023/08/22 00:45:12;;;;;;;9.23;8.43;;;;;;;18.54;100.00;98131.84;6204310;28;20317;-55
2023/08/22 00:48:21;;;;;;;11.17;8.90;;;;;;;18.53;100.00;98129.44;6206197;28;20221;-55
2023/08/22 00:51:25;;;;;;;8.50;7.70;;;;;;;18.39;100.00;98109.59;6198663;28;20279;-55
2023/08/22 00:54:43;;;;;;;12.17;8.77;;;;;;;18.48;100.00;98113.31;6212166;28;20218;-55
2023/08/22 00:57:55;;;;;;;13.10;9.13;;;;;;;18.48;100.00;98118.69;6196285;28;20213;-54
2023/08/22 01:01:09;;;;;;;9.83;8.57;;;;;;;18.45;100.00;98117.34;6198450;28;20234;-54
2023/08/22 01:04:26;;;;;;;10.20;9.20;;;;;;;18.39;100.00;98104.19;6195293;28;20229;-55
2023/08/22 01:07:37;;;;;;;8.70;8.00;;;;;;;18.44;100.00;98114.94;6200846;28;20217;-55
2023/08/22 01:10:50;;;;;;;8.83;8.03;;;;;;;18.42;100.00;98115.25;6201828;28;20577;-53
2023/08/22 01:13:56;;;;;;;8.47;7.77;;;;;;;18.41;100.00;98119.00;6202343;28;20217;-54
2023/08/22 01:17:04;;;;;;;9.63;8.20;;;;;;;18.39;100.00;98110.38;6205911;28;20221;-55
2023/08/22 01:20:16;;;;;;;8.83;7.93;;;;;;;18.36;100.00;98108.25;6200889;28;20219;-54
2023/08/22 01:23:23;;;;;;;9.27;8.33;;;;;;;18.33;100.00;98105.31;6207239;28;20623;-54
2023/08/22 01:26:26;;;;;;;9.37;8.47;;;;;;;18.29;100.00;98105.06;6203399;28;20677;-55
2023/08/22 01:29:47;;;;;;;8.87;8.07;;;;;;;18.26;100.00;98103.72;6197458;28;20206;-52
2023/08/22 01:32:56;;;;;;;8.47;7.67;;;;;;;18.23;100.00;98101.63;6206696;28;20602;-55
2023/08/22 01:36:02;;;;;;;8.47;7.47;;;;;;;18.22;100.00;98096.47;6184607;28;20213;-53
2023/08/22 01:39:07;;;;;;;10.27;7.90;;;;;;;18.24;100.00;98100.53;6200182;28;20213;-53
2023/08/22 01:42:15;;;;;;;8.20;7.40;;;;;;;18.24;100.00;98099.72;6201416;28;20299;-55
2023/08/22 01:45:18;;;;;;;7.73;7.13;;;;;;;18.20;100.00;98095.97;6201757;28;20220;-52
2023/08/22 01:48:26;;;;;;;8.20;7.40;;;;;;;18.19;100.00;98108.66;6199540;28;20219;-55
2023/08/22 01:51:33;;;;;;;9.70;7.80;;;;;;;18.16;100.00;98109.19;6196656;28;20225;-54
2023/08/22 01:58:03;;;;;;;9.20;8.00;;;;;;;18.11;100.00;98106.53;6230467;28;20569;-59
2023/08/22 02:01:12;;;;;;;10.17;8.13;;;;;;;18.10;100.00;98107.63;6225613;28;20208;-58
2023/08/22 02:04:15;;;;;;;9.33;7.47;;;;;;;18.04;100.00;98106.88;6224957;28;20228;-58
2023/08/22 02:07:17;;;;;;;7.30;6.70;;;;;;;18.03;100.00;98107.16;6231651;28;20212;-56
2023/08/22 02:10:20;;;;;;;9.20;7.27;;;;;;;17.94;100.00;98089.97;6231077;28;20578;-57
2023/08/22 02:13:22;;;;;;;8.47;7.63;;;;;;;17.98;100.00;98101.75;6237110;28;20580;-58
2023/08/22 02:16:24;;;;;;;7.87;7.17;;;;;;;17.94;100.00;98106.13;6229786;28;20212;-59
2023/08/22 02:19:27;;;;;;;8.17;7.37;;;;;;;17.92;100.00;98110.97;6227498;28;20585;-61
2023/08/22 02:22:29;;;;;;;8.30;7.50;;;;;;;17.88;100.00;98102.66;6228941;28;20254;-58
2023/08/22 02:25:32;;;;;;;7.40;6.70;;;;;;;17.87;100.00;98108.31;6228600;28;20266;-59
2023/08/22 02:28:34;;;;;;;11.23;7.17;;;;;;;17.85;100.00;98105.09;6234903;28;20567;-58
2023/08/22 02:31:37;;;;;;;7.67;6.90;;;;;;;17.84;100.00;98098.09;6237455;28;20222;-58
2023/08/22 02:34:40;;;;;;;7.57;6.80;;;;;;;17.84;100.00;98107.00;6231444;28;20703;-59
2023/08/22 02:37:42;;;;;;;7.43;6.73;;;;;;;17.82;100.00;98108.34;6225831;28;20230;-58
2023/08/22 02:40:45;;;;;;;8.33;7.37;;;;;;;17.79;100.00;98107.81;6225919;28;20224;-58
2023/08/22 02:43:48;;;;;;;9.50;7.20;;;;;;;17.74;100.00;98107.84;6234587;28;20228;-58
2023/08/22 02:46:50;;;;;;;7.90;7.10;;;;;;;17.70;100.00;98104.06;6230096;28;20227;-58
2023/08/22 02:49:53;;;;;;;7.77;7.07;;;;;;;17.67;100.00;98103.81;6230489;28;20665;-57
2023/08/22 02:52:56;;;;;;;9.10;7.13;;;;;;;17.66;100.00;98104.91;6224529;28;20291;-58
2023/08/22 02:56:00;;;;;;;8.10;7.30;;;;;;;17.63;100.00;98108.13;6233405;28;20236;-58
2023/08/22 02:59:03;;;;;;;8.93;8.10;;;;;;;17.59;100.00;98107.91;6234719;28;20294;-58
2023/08/22 03:02:05;;;;;;;8.83;7.93;;;;;;;17.58;100.00;98103.56;6230072;28;20248;-58
2023/08/22 03:05:13;;;;;;;7.80;7.10;;;;;;;17.58;100.00;98097.38;6225630;28;20243;-59
2023/08/22 03:08:17;;;;;;;8.63;7.73;;;;;;;17.59;100.00;98102.50;6229029;28;20311;-54
2023/08/22 03:11:20;;;;;;;8.90;7.90;;;;;;;17.57;100.00;98106.56;6235253;28;20215;-58
2023/08/22 03:14:25;;;;;;;8.33;7.53;;;;;;;17.53;100.00;98092.81;6234944;28;20762;-58
2023/08/22 03:17:27;;;;;;;8.37;7.57;;;;;;;17.53;100.00;98098.19;6226343;28;20211;-58
2023/08/22 03:20:30;;;;;;;10.87;7.93;;;;;;;17.52;100.00;98104.69;6229054;28;20222;-58
2023/08/22 03:23:35;;;;;;;8.83;8.03;;;;;;;17.50;100.00;98099.56;6222356;28;20226;-57
2023/08/22 03:26:37;;;;;;;8.20;7.50;;;;;;;17.50;100.00;98098.78;6222090;28;20230;-59
2023/08/22 03:29:40;;;;;;;8.70;7.10;;;;;;;17.49;100.00;98100.66;6232979;28;20208;-57
2023/08/22 03:32:43;;;;;;;9.47;7.90;;;;;;;17.44;100.00;98097.19;6227482;28;20631;-58
2023/08/22 03:35:46;;;;;;;9.27;8.40;;;;;;;17.40;100.00;98105.00;6228452;28;20226;-57
2023/08/22 03:38:51;;;;;;;8.60;7.80;;;;;;;17.39;100.00;98097.19;6224231;28;20231;-58
2023/08/22 03:41:54;;;;;;;9.30;7.53;;;;;;;17.36;100.00;98103.13;6223777;28;20223;-59
2023/08/22 03:44:56;;;;;;;8.90;8.03;;;;;;;17.36;100.00;98105.84;6229648;28;20224;-59
2023/08/22 03:48:03;;;;;;;10.10;8.57;;;;;;;17.36;100.00;98106.63;6227458;28;20222;-59
2023/08/22 03:51:07;;;;;;;8.43;7.73;;;;;;;17.36;100.00;98114.72;6228447;28;20212;-59
2023/08/22 03:54:10;;;;;;;10.43;8.53;;;;;;;17.36;100.00;98116.59;6229321;28;20513;-59
2023/08/22 03:57:12;;;;;;;8.73;7.93;;;;;;;17.35;100.00;98110.41;6227050;28;20240;-59
2023/08/22 04:00:15;;;;;;;8.43;7.43;;;;;;;17.35;100.00;98117.69;6232389;28;20212;-59
2023/08/22 04:03:21;;;;;;;8.63;7.73;;;;;;;17.26;100.00;98107.47;6228447;28;20247;-59
2023/08/22 04:06:23;;;;;;;8.47;7.57;;;;;;;17.27;100.00;98111.78;6226669;28;20217;-59
2023/08/22 04:09:26;;;;;;;8.57;7.77;;;;;;;17.35;100.00;98115.00;6237237;28;20238;-58
2023/08/22 04:12:28;;;;;;;9.13;7.70;;;;;;;17.30;100.00;98118.50;6230522;28;20223;-58
2023/08/22 04:15:31;;;;;;;11.73;8.37;;;;;;;17.30;100.00;98117.72;6230012;28;21048;-59
2023/08/22 04:18:33;;;;;;;14.57;9.10;;;;;;;17.29;100.00;98116.91;6237263;28;20229;-59
2023/08/22 04:21:36;;;;;;;8.90;8.00;;;;;;;17.24;100.00;98111.50;6228798;28;20207;-58
2023/08/22 04:24:38;;;;;;;8.97;8.07;;;;;;;17.28;100.00;98115.28;6231614;28;20247;-59
2023/08/22 04:27:42;;;;;;;10.60;8.57;;;;;;;17.27;100.00;98117.16;6230874;28;20867;-59
2023/08/22 04:30:48;;;;;;;8.67;7.70;;;;;;;17.27;100.00;98117.16;6231442;22;20233;-56
2023/08/22 04:33:50;;;;;;;9.00;8.10;;;;;;;17.25;100.00;98111.25;6185351;28;20209;-54
2023/08/22 04:36:55;;;;;;;8.20;7.50;;;;;;;17.26;100.00;98112.06;6193425;28;20201;-54
2023/08/22 04:39:58;;;;;;;8.97;8.07;;;;;;;17.26;100.00;98115.56;6191633;28;20209;-55
2023/08/22 04:43:20;;;;;;;9.97;8.97;;;;;;;17.25;100.00;98113.94;6190642;28;20723;-54
2023/08/22 04:46:23;;;;;;;8.93;8.03;;;;;;;17.27;100.00;98119.06;6190917;28;20299;-56
2023/08/22 04:49:25;;;;;;;9.27;8.37;;;;;;;17.28;100.00;98123.34;6192976;28;20331;-56
2023/08/22 04:52:28;;;;;;;11.43;8.77;;;;;;;17.16;100.00;98096.75;6197409;28;20220;-56
2023/08/22 04:55:30;;;;;;;10.43;8.50;;;;;;;17.33;100.00;98125.22;6206385;28;20364;-56
2023/08/22 04:58:32;;;;;;;10.53;9.43;;;;;;;17.34;100.00;98122.28;6178170;28;20224;-57
2023/08/22 05:01:35;;;;;;;9.17;8.17;;;;;;;17.37;100.00;98123.59;6195588;28;20208;-54
2023/08/22 05:04:37;;;;;;;10.37;9.33;;;;;;;17.41;100.00;98121.97;6199213;28;20621;-56
2023/08/22 05:07:40;;;;;;;8.97;8.17;;;;;;;17.44;100.00;98116.03;6195418;28;20237;-56
2023/08/22 05:10:43;;;;;;;9.57;8.57;;;;;;;17.46;100.00;98116.56;6194681;28;20217;-56
2023/08/22 05:13:45;;;;;;;9.90;8.90;;;;;;;17.49;100.00;98118.72;6195723;28;20749;-54
2023/08/22 05:16:48;;;;;;;9.57;8.73;;;;;;;17.51;100.00;98119.25;6194968;28;20210;-54
2023/08/22 05:19:50;;;;;;;9.60;8.70;;;;;;;17.54;100.00;98119.50;6195350;28;20294;-55
2023/08/22 05:22:53;;;;;;;10.93;9.17;;;;;;;17.54;100.00;98116.00;6200207;28;20631;-55
2023/08/22 05:25:56;;;;;;;9.20;8.40;;;;;;;17.62;100.00;98117.31;6194665;28;20235;-55
2023/08/22 05:28:58;;;;;;;8.87;8.07;;;;;;;17.63;100.00;98121.59;6186603;28;20205;-53
2023/08/22 05:32:02;;;;;;;10.07;8.70;;;;;;;17.64;100.00;98123.25;6195718;28;20236;-55
2023/08/22 05:35:06;;;;;;;10.03;9.10;;;;;;;17.67;100.00;98131.56;6196054;28;20586;-55
2023/08/22 05:38:08;;;;;;;9.30;8.50;;;;;;;17.70;100.00;98128.31;6192826;28;20214;-55
2023/08/22 05:41:10;;;;;;;10.07;9.17;;;;;;;17.74;100.00;98134.81;6194643;28;20476;-54
2023/08/22 05:44:13;;;;;;;9.27;8.37;;;;;;;17.79;100.00;98139.38;6193352;28;20243;-53
2023/08/22 05:47:15;;;;;;;9.30;8.40;;;;;;;17.84;100.00;98133.94;6196097;28;20215;-54
2023/08/22 05:50:20;;;;;;;10.40;9.20;;;;;;;17.89;100.00;98136.63;6193005;28;20213;-56
2023/08/22 05:53:23;;;;;;;11.80;9.73;;;;;;;17.96;100.00;98142.50;6196346;28;20716;-55
2023/08/22 05:56:25;;;;;;;10.23;9.33;;;;;;;18.02;100.00;98145.97;6202378;28;20224;-55
2023/08/22 05:59:28;;;;;;;10.03;9.13;;;;;;;18.08;100.00;98133.25;6199016;28;20305;-53
2023/08/22 06:02:32;;;;;;;10.03;9.07;;;;;;;18.13;100.00;98133.22;6209993;28;20217;-55
2023/08/22 06:05:35;;;;;;;9.63;8.73;;;;;;;18.17;100.00;98129.69;6193930;28;20642;-53
2023/08/22 06:08:37;;;;;;;11.00;9.80;;;;;;;18.25;100.00;98131.78;6195272;28;20221;-53
2023/08/22 06:11:39;;;;;;;9.80;8.90;;;;;;;18.29;100.00;98135.56;6194106;28;20225;-54
2023/08/22 06:14:42;;;;;;;10.27;9.37;;;;;;;18.37;100.00;98133.31;6195528;28;20695;-53
2023/08/22 06:17:44;;;;;;;10.90;9.90;;;;;;;18.47;100.00;98128.69;6196919;28;20306;-52
2023/08/22 06:20:46;;;;;;;9.30;8.40;;;;;;;18.55;100.00;98128.06;6196602;28;20228;-55
2023/08/22 06:23:48;;;;;;;10.73;9.67;;;;;;;18.64;100.00;98127.47;6199336;28;20766;-54
2023/08/22 06:26:52;;;;;;;9.60;8.70;;;;;;;18.73;100.00;98128.50;6208077;28;20343;-59
2023/08/22 06:29:55;;;;;;;9.80;8.90;;;;;;;18.83;100.00;98122.19;6196631;28;20225;-59
2023/08/22 06:32:57;;;;;;;10.40;9.47;;;;;;;18.93;100.00;98120.22;6192879;28;20220;-59
2023/08/22 06:36:02;;;;;;;10.07;9.03;;;;;;;19.04;100.00;98113.59;6196640;28;20220;-59
2023/08/22 06:39:05;;;;;;;12.47;9.07;;;;;;;19.16;100.00;98110.53;6203497;28;20233;-59
2023/08/22 06:42:07;;;;;;;10.33;9.33;;;;;;;19.27;100.00;98114.72;6197192;28;20303;-58
2023/08/22 06:45:11;;;;;;;10.80;9.70;;;;;;;19.42;100.00;98110.22;6197663;28;20339;-59
2023/08/22 06:48:13;;;;;;;10.63;9.63;;;;;;;19.56;100.00;98113.84;6192833;28;20219;-58
2023/08/22 06:51:32;;;;;;;12.00;9.83;;;;;;;19.70;100.00;98113.94;6196325;28;20221;-59
2023/08/22 06:54:35;;;;;;;11.50;9.30;;;;;;;19.86;100.00;98111.88;6201722;28;20627;-59
2023/08/22 06:57:38;;;;;;;9.77;8.97;;;;;;;20.01;100.00;98108.94;6193126;28;20316;-58
2023/08/22 07:00:43;;;;;;;9.80;8.87;;;;;;;20.15;100.00;98096.28;6192973;28;20581;-59
2023/08/22 07:03:45;;;;;;;9.77;8.23;;;;;;;20.35;100.00;98095.97;6195149;28;20589;-58
2023/08/22 07:06:52;;;;;;;8.40;7.60;;;;;;;20.51;100.00;98104.69;6193166;28;20360;-59
2023/08/22 07:09:54;;;;;;;8.27;7.63;;;;;;;20.76;100.00;98106.16;6195569;28;20547;-58
2023/08/22 07:13:00;;;;;;;8.97;8.17;;;;;;;20.97;100.00;98105.78;6197335;28;20228;-57
2023/08/22 07:16:02;;;;;;;8.40;7.70;;;;;;;21.18;100.00;98108.91;6176886;28;20249;-59
2023/08/22 07:19:04;;;;;;;8.03;7.33;;;;;;;21.38;100.00;98112.06;6175992;28;20267;-58
2023/08/22 07:22:13;;;;;;;7.67;6.97;;;;;;;21.58;100.00;98104.63;6195070;28;20333;-59
2023/08/22 07:25:21;;;;;;;8.10;7.40;;;;;;;21.78;100.00;98106.91;6193490;28;20244;-57
2023/08/22 07:28:23;;;;;;;13.13;11.93;;;;;;;21.97;100.00;98111.38;6191043;28;20212;-57
2023/08/22 07:31:26;;;;;;;22.97;20.63;;;;;;;22.18;100.00;98109.06;6192410;28;20323;-56
2023/08/22 07:34:29;;;;;;;16.93;15.33;;;;;;;22.38;100.00;98114.78;6196744;28;20582;-56
2023/08/22 07:37:31;;;;;;;14.23;12.90;;;;;;;22.58;100.00;98110.78;6191518;28;20243;-55
2023/08/22 07:40:38;;;;;;;12.90;11.13;;;;;;;22.80;100.00;98111.88;6197284;28;20314;-55
2023/08/22 07:43:40;;;;;;;10.47;9.53;;;;;;;22.94;99.13;98107.19;6196731;28;20290;-54
2023/08/22 07:46:44;;;;;;;9.25;8.45;;;;;;;23.10;97.64;98108.41;6197123;28;20582;-54
2023/08/22 07:49:46;;;;;;;10.00;9.05;;;;;;;23.25;96.79;98104.47;6192659;28;20306;-56
2023/08/22 07:52:50;;;;;;;8.07;7.47;;;;;;;23.40;95.31;98112.19;6189668;28;20295;-57
2023/08/22 07:55:52;;;;;;;8.38;7.63;;;;;;;23.49;93.71;98103.22;6191343;28;20287;-51
2023/08/22 07:58:54;;;;;;;7.68;7.07;;;;;;;23.68;92.95;98107.31;6188955;28;20708;-49
2023/08/22 08:01:57;;;;;;;7.93;7.13;;;;;;;23.82;91.00;98109.09;6192572;28;20221;-50
2023/08/22 08:04:59;;;;;;;7.85;7.22;;;;;;;23.90;90.10;98098.25;6194479;28;20256;-50
2023/08/22 08:08:03;;;;;;;7.82;7.13;;;;;;;24.08;90.54;98103.69;6193802;28;20216;-51
2023/08/22 08:11:05;;;;;;;7.43;6.75;;;;;;;24.20;90.12;98104.66;6191254;28;20213;-50
2023/08/22 08:14:08;;;;;;;8.18;7.38;;;;;;;24.33;87.96;98102.88;6192219;28;20699;-51
2023/08/22 08:17:10;;;;;;;7.50;6.88;;;;;;;24.44;87.65;98106.94;6193998;28;20680;-52
2023/08/22 08:20:14;;;;;;;8.40;7.57;;;;;;;24.58;87.05;98103.19;6192822;28;20221;-52
2023/08/22 08:23:19;;;;;;;7.75;7.13;;;;;;;24.65;86.42;98098.06;6196000;28;20425;-50
2023/08/22 08:26:22;;;;;;;7.07;6.57;;;;;;;24.81;84.33;98110.06;6187524;28;20240;-51
2023/08/22 08:29:25;;;;;;;7.35;6.70;;;;;;;24.92;82.10;98100.41;6197098;28;20217;-51
2023/08/22 08:32:28;;;;;;;7.35;6.60;;;;;;;25.07;81.02;98104.53;6195793;28;20334;-50
2023/08/22 08:35:31;;;;;;;7.78;7.07;;;;;;;25.18;81.59;98110.47;6201420;28;20220;-51
2023/08/22 08:38:34;;;;;;;7.13;6.43;;;;;;;25.20;80.80;98100.03;6194725;28;20231;-49
2023/08/22 08:41:43;;;;;;;9.07;7.38;;;;;;;25.35;81.15;98110.38;6196360;28;20229;-54
2023/08/22 08:44:45;;;;;;;7.35;6.65;;;;;;;25.37;79.53;98096.41;6198261;28;20375;-52
2023/08/22 08:47:48;;;;;;;7.38;6.60;;;;;;;25.48;77.83;98103.09;6200633;28;20684;-51
2023/08/22 08:50:51;;;;;;;8.82;6.60;;;;;;;25.63;75.69;98109.94;6196719;28;20710;-53
2023/08/22 08:53:55;;;;;;;6.50;5.97;;;;;;;25.71;74.86;98101.69;6195755;28;20431;-52
2023/08/22 08:56:59;;;;;;;6.93;6.32;;;;;;;25.81;73.65;98103.25;6197007;28;20224;-51
2023/08/22 09:00:03;;;;;;;7.15;6.55;;;;;;;25.94;72.92;98098.66;6197370;28;20629;-54
2023/08/22 09:03:06;;;;;;;6.78;6.18;;;;;;;26.04;73.09;98094.75;6198546;28;20232;-52
2023/08/22 09:06:08;;;;;;;7.55;6.63;;;;;;;26.12;72.65;98091.16;6201417;28;20576;-52
2023/08/22 09:09:12;;;;;;;6.32;5.72;;;;;;;26.23;71.30;98095.88;6200826;28;20267;-49
2023/08/22 09:12:15;;;;;;;6.00;5.45;;;;;;;26.35;71.03;98089.66;6194690;28;20232;-52
2023/08/22 09:15:18;;;;;;;8.65;7.88;;;;;;;26.46;69.08;98095.56;6196279;28;20684;-51
2023/08/22 09:18:31;;;;;;;9.38;7.53;;;;;;;26.61;68.89;98094.91;6197383;28;20221;-49
2023/08/22 09:21:35;;;;;;;9.02;7.43;;;;;;;26.67;66.63;98088.09;6193878;28;20209;-50
2023/08/22 09:24:37;;;;;;;7.90;6.88;;;;;;;26.75;67.28;98079.03;6197141;28;20239;-48
2023/08/22 09:27:40;;;;;;;8.75;7.15;;;;;;;26.89;67.87;98088.81;6195345;28;20217;-51
2023/08/22 09:30:47;;;;;;;7.53;6.85;;;;;;;26.97;66.94;98088.72;6196193;28;20245;-50
2023/08/22 09:33:50;;;;;;;7.40;6.70;;;;;;;27.04;65.90;98079.94;6199148;28;20201;-50
2023/08/22 09:36:54;;;;;;;7.00;6.30;;;;;;;27.14;66.20;98078.75;6196246;28;20304;-51
2023/08/22 09:39:57;;;;;;;8.20;6.25;;;;;;;27.25;64.99;98075.22;6192746;28;20858;-47
2023/08/22 09:43:00;;;;;;;9.02;7.32;;;;;;;27.47;61.94;98070.44;6194130;28;20220;-51
2023/08/22 09:46:04;;;;;;;10.88;7.32;;;;;;;27.62;62.94;98064.25;6199205;28;20327;-49
2023/08/22 09:49:13;;;;;;;7.90;7.15;;;;;;;27.76;58.98;98061.97;6196970;28;20217;-49
2023/08/22 09:52:16;;;;;;;7.95;7.07;;;;;;;27.81;61.84;98060.94;6192543;28;20716;-50
2023/08/22 09:55:19;;;;;;;7.95;7.18;;;;;;;28.00;59.61;98060.34;6198427;28;20221;-53
2023/08/22 09:58:21;;;;;;;7.78;7.18;;;;;;;27.93;61.36;98049.16;6194236;28;20241;-50
2023/08/22 10:01:24;;;;;;;8.02;6.95;;;;;;;28.08;60.68;98059.41;6200630;28;20299;-51
2023/08/22 10:04:32;;;;;;;7.68;6.90;;;;;;;28.16;58.98;98065.88;6191291;28;20264;-51
2023/08/22 10:07:35;;;;;;;7.72;7.03;;;;;;;28.24;58.89;98062.97;6196613;28;20243;-53
2023/08/22 10:10:37;;;;;;;10.70;6.95;;;;;;;28.26;58.95;98037.97;6195790;28;20307;-50
2023/08/22 10:13:41;;;;;;;9.70;7.47;;;;;;;28.38;59.93;98056.34;6194010;28;20228;-52
2023/08/22 10:16:45;;;;;;;6.82;6.22;;;;;;;28.43;58.99;98056.88;6189116;28;20693;-50
2023/08/22 10:19:47;;;;;;;9.70;7.35;;;;;;;28.49;59.51;98049.19;6195103;28;20232;-52
2023/08/22 10:22:52;;;;;;;8.77;6.95;;;;;;;28.44;58.62;98013.81;6197620;28;20296;-50
2023/08/22 10:25:55;;;;;;;7.20;6.60;;;;;;;28.84;50.10;98037.56;6195226;28;20281;-53
2023/08/22 10:29:17;;;;;;;7.78;6.60;;;;;;;29.04;54.65;98042.81;6187638;28;20221;-49
2023/08/22 10:32:21;;;;;;;6.88;6.25;;;;;;;29.04;54.71;98042.81;6191292;28;20724;-48
2023/08/22 10:35:25;;;;;;;8.25;6.15;;;;;;;29.06;55.75;98042.44;6190990;28;20713;-50
2023/08/22 10:38:28;;;;;;;8.05;6.18;;;;;;;29.08;55.87;98042.13;6192719;28;20312;-51
2023/08/22 10:41:54;;;;;;;7.95;5.95;;;;;;;29.10;54.23;98028.81;6191551;28;20212;-53
2023/08/22 10:44:58;;;;;;;6.28;5.68;;;;;;;28.37;49.34;97896.56;6215141;22;20233;-94
2023/08/22 10:48:10;;;;;;;5.43;4.97;;;;;;;28.82;48.21;97952.91;6188971;28;20204;-94
2023/08/22 10:51:13;;;;;;;6.03;5.45;;;;;;;28.80;49.95;97934.06;6198722;28;20279;-93
2023/08/22 10:54:17;;;;;;;5.18;4.75;;;;;;;29.49;45.43;98016.81;6185205;28;20219;-96
2023/08/22 10:57:19;;;;;;;6.53;4.97;;;;;;;29.49;47.93;98013.28;6191309;28;20255;-93
2023/08/22 11:00:23;;;;;;;6.30;5.30;;;;;;;29.47;46.46;97999.91;6200472;28;20212;-90
2023/08/22 11:03:26;;;;;;;5.75;5.07;;;;;;;29.45;48.15;97985.72;6198887;28;20644;-90
2023/08/22 11:06:31;;;;;;;6.88;5.13;;;;;;;29.48;44.70;97974.03;6201816;28;20271;-88
2023/08/22 11:09:35;;;;;;;5.40;4.90;;;;;;;29.63;45.29;97980.66;6190145;28;20219;-91
2023/08/22 11:12:38;;;;;;;7.22;5.15;;;;;;;29.48;47.13;97945.81;6180082;28;20265;-89
2023/08/22 11:15:41;;;;;;;5.57;5.07;;;;;;;29.91;48.77;98004.41;6200766;28;20676;-90
2023/08/22 11:18:47;;;;;;;7.38;5.45;;;;;;;29.99;49.25;98012.41;6200369;28;20609;-90
2023/08/22 11:21:49;;;;;;;8.77;5.97;;;;;;;29.96;49.21;97998.63;6187302;28;20694;-90
2023/08/22 11:24:52;;;;;;;7.03;6.22;;;;;;;29.99;47.94;97987.69;6196884;28;20216;-90
2023/08/22 11:27:54;;;;;;;26.52;8.52;;;;;;;30.02;47.31;97973.22;6185953;28;20694;-90
2023/08/22 11:30:56;;;;;;;10.45;6.45;;;;;;;30.15;45.22;97975.81;6175627;28;20238;-89
2023/08/22 11:33:59;;;;;;;6.97;6.32;;;;;;;30.31;47.54;97996.56;6201994;28;20718;-89
2023/08/22 11:37:06;;;;;;;8.35;6.95;;;;;;;30.19;44.91;97969.25;6200707;28;20279;-90
2023/08/22 11:40:15;;;;;;;10.40;7.22;;;;;;;30.42;46.08;97996.78;6200242;28;20716;-90
2023/08/22 11:43:17;;;;;;;10.55;9.45;;;;;;;29.94;47.55;97935.78;6198712;28;20591;-90
2023/08/22 11:46:21;;;;;;;29.05;24.45;;;;;;;30.46;47.35;98005.88;6216677;28;20259;-90
2023/08/22 11:49:51;;;;;;;17.88;14.73;;;;;;;30.47;48.00;98007.47;6201116;28;20220;-90
2023/08/22 11:52:55;;;;;;;17.38;14.52;;;;;;;30.49;48.32;97994.16;6175348;28;20324;-91
2023/08/22 11:56:45;;;;;;;8.52;7.72;;;;;;;30.56;45.30;97993.50;6185877;28;20695;-90
2023/08/22 11:59:50;;;;;;;10.27;6.40;;;;;;;30.15;44.65;97913.44;6183356;28;20209;-91
2023/08/22 12:02:57;;;;;;;9.30;6.00;;;;;;;30.71;44.14;97984.34;6203581;28;20279;-92
2023/08/22 12:06:10;;;;;;;7.28;6.45;;;;;;;30.84;43.08;97982.22;6199348;28;20232;-89
2023/08/22 12:09:14;;;;;;;6.88;5.95;;;;;;;30.85;43.09;97981.03;6202975;28;20215;-91
2023/08/22 12:12:17;;;;;;;6.30;5.75;;;;;;;30.64;44.64;97951.22;6205808;28;20690;-92
2023/08/22 12:15:19;;;;;;;9.55;6.15;;;;;;;30.31;44.68;97902.31;6185141;28;20203;-91
2023/08/22 12:18:29;;;;;;;6.35;5.63;;;;;;;30.93;43.00;97974.47;6181164;28;20350;-92
2023/08/22 12:21:32;;;;;;;6.38;5.05;;;;;;;31.01;42.31;97981.69;6198878;28;20222;-92
2023/08/22 12:24:34;;;;;;;6.18;5.65;;;;;;;30.67;41.66;97919.41;6200760;28;20269;-90
2023/08/22 12:27:36;;;;;;;7.22;5.70;;;;;;;31.06;42.18;97967.63;6201518;28;20235;-91
2023/08/22 12:30:42;;;;;;;7.43;5.50;;;;;;;30.68;42.58;97923.75;6180249;28;20208;-91
2023/08/22 12:33:45;;;;;;;7.03;5.15;;;;;;;30.98;42.50;97965.91;6184827;28;20219;-90
2023/08/22 12:36:48;;;;;;;6.90;6.20;;;;;;;30.36;44.14;97868.25;6199867;28;20213;-90
2023/08/22 12:39:51;;;;;;;8.35;6.07;;;;;;;30.93;40.91;97955.22;6183624;28;20294;-90
2023/08/22 12:42:55;;;;;;;7.65;5.32;;;;;;;31.04;38.86;97930.63;6187373;28;20754;-90
2023/08/22 12:45:57;;;;;;;6.63;5.20;;;;;;;30.79;41.24;97869.75;6189832;28;20231;-92
2023/08/22 12:48:59;;;;;;;7.35;5.10;;;;;;;31.20;41.59;97935.97;6182901;28;20223;-91
2023/08/22 12:52:02;;;;;;;7.35;6.22;;;;;;;31.24;41.28;97934.06;6188903;28;20242;-92
2023/08/22 12:55:08;;;;;;;8.90;5.93;;;;;;;31.01;40.48;97881.84;6180032;28;21007;-90
2023/08/22 12:58:10;;;;;;;7.68;6.03;;;;;;;31.29;42.44;97926.31;6198535;28;20212;-91
2023/08/22 13:01:14;;;;;;;6.78;5.68;;;;;;;31.31;44.02;97934.97;6184680;28;20216;-91
2023/08/22 13:04:16;;;;;;;8.48;5.97;;;;;;;31.20;45.06;97931.25;6201052;28;20243;-92
2023/08/22 13:07:19;;;;;;;11.75;5.90;;;;;;;31.02;45.23;97906.22;6177959;28;20236;-92
2023/08/22 13:10:21;;;;;;;7.00;5.32;;;;;;;30.74;43.69;97861.78;6213389;28;20216;-92
2023/08/22 13:13:23;;;;;;;6.90;6.20;;;;;;;31.22;43.55;97931.66;6186646;28;20216;-88
2023/08/22 13:16:26;;;;;;;6.88;5.75;;;;;;;31.36;44.21;97925.59;6205651;28;20228;-89
2023/08/22 13:19:28;;;;;;;7.40;6.40;;;;;;;31.31;43.49;97901.13;6205964;28;20739;-86
2023/08/22 13:22:30;;;;;;;9.50;5.78;;;;;;;31.46;42.34;97894.66;6193735;28;20683;-87
2023/08/22 13:25:33;;;;;;;8.02;6.05;;;;;;;31.50;42.61;97909.25;6203648;28;20231;-86
2023/08/22 13:28:35;;;;;;;7.13;6.20;;;;;;;31.36;43.26;97908.28;6189479;28;20262;-87
2023/08/22 13:31:39;;;;;;;8.82;6.03;;;;;;;31.50;43.92;97919.47;6195181;28;20250;-88
2023/08/22 13:34:44;;;;;;;7.18;6.47;;;;;;;31.11;43.71;97864.66;6192769;28;20744;-88
2023/08/22 13:37:47;;;;;;;11.18;6.45;;;;;;;31.37;42.46;97904.34;6201449;28;20212;-87
2023/08/22 13:40:50;;;;;;;8.95;6.32;;;;;;;31.37;43.31;97901.59;6198465;28;20219;-88
2023/08/22 13:43:52;;;;;;;5.85;5.20;;;;;;;31.25;44.17;97889.63;6201157;28;20266;-87
2023/08/22 13:46:54;;;;;;;6.47;5.88;;;;;;;31.23;44.83;97878.22;6203498;28;20668;-86
2023/08/22 13:49:56;;;;;;;9.23;6.57;;;;;;;31.25;45.43;97908.91;6199175;28;20213;-87
2023/08/22 13:52:59;;;;;;;7.35;5.72;;;;;;;31.17;45.03;97911.94;6207057;28;20261;-86
2023/08/22 13:56:02;;;;;;;8.57;6.10;;;;;;;31.15;43.53;97895.00;6178450;28;20208;-87
2023/08/22 13:59:04;;;;;;;8.82;5.68;;;;;;;31.08;42.91;97884.66;6187685;28;20288;-87
2023/08/22 14:02:06;;;;;;;6.03;5.43;;;;;;;31.08;43.95;97904.75;6206305;28;20618;-88
2023/08/22 14:05:13;;;;;;;9.00;5.20;;;;;;;31.19;41.13;97893.09;6215051;28;20217;-87
2023/08/22 14:08:15;;;;;;;6.35;5.13;;;;;;;30.70;43.54;97837.00;6185237;28;20204;-87
2023/08/22 14:11:17;;;;;;;5.95;5.45;;;;;;;30.57;45.11;97849.31;6201572;28;20242;-87
2023/08/22 14:14:20;;;;;;;6.20;5.43;;;;;;;30.64;44.38;97865.97;6196778;28;20262;-87
2023/08/22 14:17:22;;;;;;;9.30;5.30;;;;;;;30.81;44.29;97901.19;6204959;28;20693;-87
2023/08/22 14:20:24;;;;;;;7.00;5.80;;;;;;;30.71;43.96;97884.53;6205360;28;20245;-87
2023/08/22 14:23:26;;;;;;;5.43;4.93;;;;;;;30.55;44.16;97870.91;6186146;28;20268;-88